Pelham, New York
Current Conditions -  °F | °C
As of 1:51 AM on Sunday 26 Oct 2014 (Local Time) from KLGA Reporting Station
Overcast Overcast  
Wind Chill: 61°   Ceiling: 7000
Heat Index: 61°   Visibility: 10mi
Dew Point: 48°   Wind: 14mph
Humidity: 62%   Direction: 280°W
Pressure: 29.55"   Gusts: NA
Location:  40.91°N, 73.81°W
Report Text: KLGA 260551Z 28012KT 10SM BKN070 OVC110 16/09 A2955 RMK AO2 RAE18 SLP006 P0000 60000 T01610089 10178 20156 56010
Loading
Personal Weather Stations






























Interactive Weather Map
Tropical Storm Tracking
New forecast layout! Learn more

10-Day Weather Forecast

Advertisements
Track Severe Weather on mobile